createdAt,value
2017-11-26T00:01:39.252Z,8.20
2017-11-26T00:04:14.230Z,8.03
2017-11-26T00:06:49.548Z,15.13
2017-11-26T00:09:24.638Z,11.20
2017-11-26T00:11:59.654Z,9.50
2017-11-26T00:14:34.665Z,13.10
2017-11-26T00:17:09.591Z,12.07
2017-11-26T00:19:44.710Z,11.87
2017-11-26T00:22:19.734Z,11.93
2017-11-26T00:24:54.446Z,13.00
2017-11-26T00:27:29.723Z,11.10
2017-11-26T00:30:04.608Z,11.10
2017-11-26T00:32:39.958Z,16.07
2017-11-26T00:35:14.523Z,9.80
2017-11-26T00:37:49.550Z,11.57
2017-11-26T00:40:24.071Z,16.93
2017-11-26T00:42:58.859Z,10.97
2017-11-26T00:45:33.383Z,13.17
2017-11-26T00:48:07.882Z,11.87
2017-11-26T00:50:43.026Z,14.10
2017-11-26T00:53:17.840Z,10.27
2017-11-26T00:55:52.703Z,15.73
2017-11-26T00:58:27.719Z,7.60
2017-11-26T01:01:02.652Z,12.37
2017-11-26T01:03:37.598Z,11.50
2017-11-26T01:06:12.735Z,11.80
2017-11-26T01:08:47.740Z,14.70
2017-11-26T01:11:22.668Z,12.80
2017-11-26T01:13:57.570Z,13.67
2017-11-26T01:16:32.685Z,17.23
2017-11-26T01:19:07.703Z,13.27
2017-11-26T01:21:42.913Z,15.50
2017-11-26T01:24:17.814Z,15.90
2017-11-26T01:26:52.936Z,14.30
2017-11-26T01:29:27.639Z,14.27
2017-11-26T01:32:02.849Z,15.47
2017-11-26T01:34:38.043Z,17.40
2017-11-26T01:37:13.144Z,9.73
2017-11-26T01:39:47.961Z,19.87
2017-11-26T01:42:22.382Z,17.47
2017-11-26T01:44:57.207Z,20.87
2017-11-26T01:47:32.027Z,19.20
2017-11-26T01:50:07.240Z,15.30
2017-11-26T01:52:42.366Z,16.77
2017-11-26T01:55:17.419Z,20.30
2017-11-26T01:57:52.742Z,16.63
2017-11-26T02:00:27.561Z,22.70
2017-11-26T02:03:02.584Z,15.33
2017-11-26T02:05:37.621Z,20.33
2017-11-26T02:08:12.967Z,19.23
2017-11-26T02:10:48.074Z,11.03
2017-11-26T02:13:23.185Z,23.67
2017-11-26T02:15:58.387Z,19.30
2017-11-26T02:18:33.677Z,15.80
2017-11-26T02:21:08.657Z,12.10
2017-11-26T02:23:43.183Z,17.07
2017-11-26T02:26:17.946Z,18.57
2017-11-26T02:28:52.978Z,15.93
2017-11-26T02:31:39.303Z,15.13
2017-11-26T02:34:24.935Z,17.37
2017-11-26T02:36:59.207Z,14.50
2017-11-26T02:39:34.088Z,15.37
2017-11-26T02:42:08.571Z,13.40
2017-11-26T02:44:43.264Z,15.43
2017-11-26T02:47:18.157Z,20.30
2017-11-26T02:49:53.379Z,16.17
2017-11-26T02:52:28.051Z,16.27
2017-11-26T02:55:02.459Z,16.00
2017-11-26T02:57:37.434Z,17.33
2017-11-26T03:00:12.319Z,18.47
2017-11-26T03:02:47.319Z,20.07
2017-11-26T03:05:22.550Z,18.40
2017-11-26T03:07:57.749Z,14.73
2017-11-26T03:10:32.882Z,18.23
2017-11-26T03:13:07.830Z,19.47
2017-11-26T03:15:42.939Z,17.30
2017-11-26T03:18:18.042Z,23.97
2017-11-26T03:20:53.315Z,26.33
2017-11-26T03:23:28.094Z,22.23
2017-11-26T03:26:03.143Z,23.80
2017-11-26T03:28:38.075Z,28.33
2017-11-26T03:31:12.837Z,30.80
2017-11-26T03:33:47.256Z,19.60
2017-11-26T03:36:22.171Z,30.50
2017-11-26T03:38:57.287Z,21.37
2017-11-26T03:41:32.059Z,23.17
2017-11-26T03:44:07.090Z,23.03
2017-11-26T03:46:42.116Z,25.67
2017-11-26T03:49:16.883Z,37.00
2017-11-26T03:51:51.370Z,20.17
2017-11-26T03:54:26.596Z,20.07
2017-11-26T03:57:01.956Z,26.50
2017-11-26T03:59:37.182Z,31.03
2017-11-26T04:02:11.975Z,26.37
2017-11-26T04:04:46.856Z,28.97
2017-11-26T04:07:21.187Z,18.47
2017-11-26T04:09:55.891Z,25.40
2017-11-26T04:12:30.942Z,28.40
2017-11-26T04:15:05.752Z,16.53
2017-11-26T04:17:40.469Z,31.77
2017-11-26T04:20:15.618Z,22.33
2017-11-26T04:22:50.825Z,21.90
2017-11-26T04:25:25.757Z,17.97
2017-11-26T04:28:00.663Z,29.80
2017-11-26T04:30:35.095Z,25.27
2017-11-26T04:33:09.668Z,23.87
2017-11-26T04:35:44.439Z,31.70
2017-11-26T04:38:19.457Z,26.80
2017-11-26T04:40:54.219Z,22.50
2017-11-26T04:43:28.614Z,26.40
2017-11-26T04:46:03.221Z,19.77
2017-11-26T04:48:38.437Z,26.80
2017-11-26T04:51:13.250Z,19.93
2017-11-26T04:53:47.266Z,23.50
2017-11-26T04:56:21.671Z,32.03
2017-11-26T04:58:56.382Z,28.33
2017-11-26T05:01:31.101Z,21.37
2017-11-26T05:04:06.274Z,13.70
2017-11-26T05:06:40.889Z,26.27
2017-11-26T05:09:16.195Z,25.77
2017-11-26T05:11:51.162Z,18.97
2017-11-26T05:14:26.170Z,46.20
2017-11-26T05:17:01.095Z,26.27
2017-11-26T05:19:36.020Z,31.67
2017-11-26T05:22:10.949Z,22.37
2017-11-26T05:24:45.754Z,31.93
2017-11-26T05:27:20.691Z,22.30
2017-11-26T05:29:55.540Z,27.87
2017-11-26T05:32:30.366Z,26.07
2017-11-26T05:35:05.029Z,21.17
2017-11-26T05:37:39.882Z,23.73
2017-11-26T05:40:14.692Z,29.10
2017-11-26T05:42:49.618Z,25.30
2017-11-26T05:45:24.206Z,23.17
2017-11-26T05:47:58.524Z,18.87
2017-11-26T05:50:33.627Z,17.97
2017-11-26T05:53:08.665Z,22.07
2017-11-26T05:55:43.618Z,24.70
2017-11-26T05:58:18.748Z,23.90
2017-11-26T06:00:53.472Z,27.37
2017-11-26T06:03:28.738Z,20.03
2017-11-26T06:06:04.027Z,15.53
2017-11-26T06:08:38.936Z,23.97
2017-11-26T06:11:14.151Z,10.37
2017-11-26T06:13:49.158Z,20.77
2017-11-26T06:16:24.273Z,14.90
2017-11-26T06:18:59.207Z,18.50
2017-11-26T06:21:34.223Z,18.20
2017-11-26T06:24:09.094Z,19.07
2017-11-26T06:26:43.146Z,23.80
2017-11-26T06:29:18.258Z,28.73
2017-11-26T06:31:53.211Z,22.80
2017-11-26T06:34:28.144Z,22.07
2017-11-26T06:37:02.859Z,19.23
2017-11-26T06:39:37.966Z,17.90
2017-11-26T06:42:12.890Z,23.07
2017-11-26T06:44:47.290Z,18.77
2017-11-26T06:47:22.632Z,19.93
2017-11-26T06:49:57.954Z,23.30
2017-11-26T06:52:32.571Z,18.77
2017-11-26T06:55:07.197Z,20.13
2017-11-26T06:57:42.009Z,18.73
2017-11-26T07:00:17.041Z,16.77
2017-11-26T07:02:52.316Z,15.97
2017-11-26T07:05:27.452Z,22.10
2017-11-26T07:08:02.550Z,25.50
2017-11-26T07:10:37.527Z,16.33
2017-11-26T07:13:12.131Z,19.93
2017-11-26T07:15:46.323Z,11.80
2017-11-26T07:18:21.631Z,9.93
2017-11-26T07:20:56.741Z,12.20
2017-11-26T07:23:31.622Z,21.37
2017-11-26T07:26:06.301Z,18.40
2017-11-26T07:28:41.607Z,22.13
2017-11-26T07:31:16.837Z,12.50
2017-11-26T07:33:51.774Z,7.97
2017-11-26T07:36:26.720Z,19.03
2017-11-26T07:39:01.136Z,12.27
2017-11-26T07:41:36.284Z,11.30
2017-11-26T07:44:11.171Z,10.10
2017-11-26T07:46:45.975Z,13.60
2017-11-26T07:49:20.974Z,10.27
2017-11-26T07:51:55.878Z,13.40
2017-11-26T07:54:31.034Z,12.27
2017-11-26T07:57:05.454Z,12.83
2017-11-26T07:59:40.563Z,13.83
2017-11-26T08:02:15.699Z,14.50
2017-11-26T08:04:50.515Z,11.30
2017-11-26T08:07:25.235Z,12.83
2017-11-26T08:10:00.427Z,11.97
2017-11-26T08:12:35.659Z,15.60
2017-11-26T08:15:10.708Z,14.80
2017-11-26T08:17:45.850Z,14.70
2017-11-26T08:20:20.754Z,13.20
2017-11-26T08:22:56.000Z,15.03
2017-11-26T08:25:31.337Z,11.93
2017-11-26T08:28:06.341Z,10.27
2017-11-26T08:30:40.819Z,10.97
2017-11-26T08:33:15.857Z,13.27
2017-11-26T08:35:50.554Z,19.00
2017-11-26T08:38:24.994Z,12.20
2017-11-26T08:40:59.907Z,15.27
2017-11-26T08:43:34.127Z,10.50
2017-11-26T08:46:09.239Z,12.60
2017-11-26T08:48:44.053Z,10.90
2017-11-26T08:51:19.086Z,8.63
2017-11-26T08:53:53.603Z,11.77
2017-11-26T08:56:28.634Z,18.00
2017-11-26T08:59:03.458Z,11.70
2017-11-26T09:01:39.632Z,12.33
2017-11-26T09:04:14.016Z,17.03
2017-11-26T09:06:59.648Z,9.30
2017-11-26T09:09:33.922Z,16.63
2017-11-26T09:12:08.800Z,10.13
2017-11-26T09:14:43.802Z,11.97
2017-11-26T09:17:18.822Z,11.07
2017-11-26T09:19:53.932Z,14.47
2017-11-26T09:22:29.068Z,11.20
2017-11-26T09:25:03.984Z,12.00
2017-11-26T09:27:39.121Z,11.33
2017-11-26T09:30:13.353Z,17.13
2017-11-26T09:32:48.585Z,12.90
2017-11-26T09:35:23.486Z,12.30
2017-11-26T09:37:58.616Z,14.87
2017-11-26T09:40:33.234Z,11.80
2017-11-26T09:43:08.404Z,11.60
2017-11-26T09:45:43.115Z,11.10
2017-11-26T09:48:18.355Z,10.83
2017-11-26T09:50:53.182Z,14.93
2017-11-26T09:53:28.183Z,6.10
2017-11-26T09:56:02.931Z,6.77
2017-11-26T09:58:37.855Z,4.53
2017-11-26T10:01:13.069Z,12.20
2017-11-26T10:03:48.120Z,11.63
2017-11-26T10:06:23.348Z,10.60
2017-11-26T10:08:58.369Z,10.00
2017-11-26T10:11:33.156Z,8.30
2017-11-26T10:14:08.406Z,10.87
2017-11-26T10:16:43.191Z,10.63
2017-11-26T10:19:18.086Z,11.40
2017-11-26T10:21:53.186Z,9.57
2017-11-26T10:24:28.194Z,12.10
2017-11-26T10:27:03.298Z,10.50
2017-11-26T10:29:38.523Z,10.53
2017-11-26T10:32:13.726Z,12.43
2017-11-26T10:34:48.930Z,7.17
2017-11-26T10:37:23.777Z,10.00
2017-11-26T10:39:58.899Z,13.17
2017-11-26T10:42:33.894Z,14.33
2017-11-26T10:45:08.680Z,8.43
2017-11-26T10:47:43.439Z,6.93
2017-11-26T10:50:18.313Z,7.53
2017-11-26T10:52:53.066Z,17.03
2017-11-26T10:55:27.843Z,12.67
2017-11-26T10:58:01.943Z,8.30
2017-11-26T11:00:36.908Z,6.20
2017-11-26T11:03:11.954Z,14.03
2017-11-26T11:05:47.266Z,9.37
2017-11-26T11:08:21.940Z,11.50
2017-11-26T11:10:57.006Z,7.63
2017-11-26T11:13:31.462Z,7.53
2017-11-26T11:16:06.354Z,13.93
2017-11-26T11:18:40.498Z,8.77
2017-11-26T11:21:15.478Z,9.07
2017-11-26T11:23:50.657Z,10.70
2017-11-26T11:26:25.766Z,6.73
2017-11-26T11:29:01.047Z,10.70
2017-11-26T11:31:35.925Z,7.83
2017-11-26T11:34:10.908Z,8.03
2017-11-26T11:36:46.029Z,7.83
2017-11-26T11:39:21.134Z,7.40
2017-11-26T11:41:56.263Z,9.13
2017-11-26T11:44:31.334Z,12.23
2017-11-26T11:47:06.394Z,11.50
2017-11-26T11:49:41.195Z,8.23
2017-11-26T11:52:15.774Z,7.83
2017-11-26T11:54:50.454Z,8.50
2017-11-26T11:57:25.259Z,10.63
2017-11-26T12:00:00.050Z,6.30
2017-11-26T12:02:34.742Z,7.70
2017-11-26T12:05:09.538Z,9.17
2017-11-26T12:07:44.316Z,11.20
2017-11-26T12:10:19.039Z,5.90
2017-11-26T12:12:53.750Z,7.23
2017-11-26T12:15:27.729Z,11.10
2017-11-26T12:18:04.935Z,8.00
2017-11-26T12:20:39.541Z,4.63
2017-11-26T12:23:14.486Z,4.80
2017-11-26T12:25:48.865Z,6.97
2017-11-26T12:28:23.730Z,7.27
2017-11-26T12:30:58.239Z,11.77
2017-11-26T12:33:32.808Z,5.90
2017-11-26T12:36:07.676Z,7.40
2017-11-26T12:38:42.770Z,5.80
2017-11-26T12:41:16.867Z,6.63
2017-11-26T12:43:51.741Z,6.73
2017-11-26T12:46:26.743Z,8.07
2017-11-26T12:49:01.522Z,4.50
2017-11-26T12:51:36.411Z,11.00
2017-11-26T12:54:11.283Z,5.43
2017-11-26T12:56:46.292Z,9.90
2017-11-26T12:59:20.435Z,8.33
2017-11-26T13:01:55.013Z,7.47
2017-11-26T13:04:29.866Z,11.63
2017-11-26T13:07:03.942Z,9.33
2017-11-26T13:09:37.815Z,6.63
2017-11-26T13:12:11.801Z,6.00
2017-11-26T13:14:46.085Z,5.23
2017-11-26T13:17:20.528Z,9.37
2017-11-26T13:19:54.582Z,9.00
2017-11-26T13:22:29.352Z,7.43
2017-11-26T13:25:03.867Z,11.23
2017-11-26T13:27:38.018Z,6.10
2017-11-26T13:30:12.994Z,13.50
2017-11-26T13:32:47.966Z,8.90
2017-11-26T13:35:22.837Z,2.87
2017-11-26T13:37:57.435Z,3.40
2017-11-26T13:40:32.271Z,6.00
2017-11-26T13:43:07.292Z,2.77
2017-11-26T13:45:42.285Z,4.83
2017-11-26T13:48:17.098Z,6.50
2017-11-26T13:50:52.003Z,4.47
2017-11-26T13:53:26.814Z,3.23
2017-11-26T13:56:01.715Z,5.90
2017-11-26T13:58:36.082Z,3.87
2017-11-26T14:01:10.239Z,3.80
2017-11-26T14:03:45.056Z,4.70
2017-11-26T14:06:19.881Z,4.80
2017-11-26T14:08:54.791Z,7.73
2017-11-26T14:11:29.746Z,3.60
2017-11-26T14:14:04.285Z,3.47
2017-11-26T14:16:38.558Z,7.40
2017-11-26T14:19:13.430Z,4.17
2017-11-26T14:21:47.485Z,8.90
2017-11-26T14:24:22.367Z,4.30
2017-11-26T14:26:57.266Z,5.70
2017-11-26T14:29:32.657Z,6.20
2017-11-26T14:32:06.842Z,4.90
2017-11-26T14:34:40.900Z,4.83
2017-11-26T14:37:16.007Z,6.33
2017-11-26T14:39:50.940Z,6.93
2017-11-26T14:42:25.911Z,3.57
2017-11-26T14:45:00.690Z,9.40
2017-11-26T14:47:34.854Z,8.27
2017-11-26T14:50:09.022Z,8.10
2017-11-26T14:52:43.180Z,10.60
2017-11-26T14:55:17.764Z,10.27
2017-11-26T14:57:52.607Z,11.00
2017-11-26T15:00:27.287Z,8.40
2017-11-26T15:03:01.935Z,4.40
2017-11-26T15:05:36.958Z,7.13
2017-11-26T15:08:11.749Z,7.10
2017-11-26T15:10:46.546Z,7.13
2017-11-26T15:13:21.109Z,8.20
2017-11-26T15:15:55.883Z,10.10
2017-11-26T15:18:30.822Z,6.57
2017-11-26T15:21:05.065Z,5.60
2017-11-26T15:23:39.343Z,4.60
2017-11-26T15:26:14.318Z,5.43
2017-11-26T15:28:49.171Z,5.47
2017-11-26T15:31:23.855Z,5.93
2017-11-26T15:33:58.851Z,5.83
2017-11-26T15:36:33.578Z,4.33
2017-11-26T15:39:08.527Z,8.73
2017-11-26T15:41:42.688Z,5.63
2017-11-26T15:44:17.563Z,7.50
2017-11-26T15:46:52.307Z,6.00
2017-11-26T15:49:27.298Z,5.70
2017-11-26T15:52:02.197Z,4.27
2017-11-26T15:54:37.193Z,6.57
2017-11-26T15:57:11.974Z,8.37
2017-11-26T15:59:46.930Z,4.43
2017-11-26T16:02:21.610Z,8.40
2017-11-26T16:04:56.554Z,5.07
2017-11-26T16:07:31.487Z,6.00
2017-11-26T16:10:06.778Z,3.63
2017-11-26T16:12:41.346Z,4.43
2017-11-26T16:15:16.300Z,5.13
2017-11-26T16:17:51.261Z,4.10
2017-11-26T16:20:26.358Z,3.67
2017-11-26T16:23:01.258Z,3.43
2017-11-26T16:25:36.114Z,4.77
2017-11-26T16:28:10.944Z,5.20
2017-11-26T16:30:45.794Z,3.40
2017-11-26T16:33:20.726Z,4.77
2017-11-26T16:35:55.644Z,4.47
2017-11-26T16:38:30.556Z,2.93
2017-11-26T16:41:05.499Z,4.63
2017-11-26T16:43:40.386Z,5.90
2017-11-26T16:46:15.287Z,2.97
2017-11-26T16:48:49.913Z,2.90
2017-11-26T16:51:24.606Z,2.23
2017-11-26T16:53:59.382Z,3.23
2017-11-26T16:56:34.087Z,2.60
2017-11-26T16:59:08.867Z,2.87
2017-11-26T17:01:43.903Z,4.03
2017-11-26T17:04:18.683Z,1.60
2017-11-26T17:06:52.670Z,3.30
2017-11-26T17:09:26.615Z,2.57
2017-11-26T17:12:00.907Z,2.70
2017-11-26T17:14:35.494Z,3.40
2017-11-26T17:17:09.770Z,6.60
2017-11-26T17:19:44.710Z,3.90
2017-11-26T17:22:19.703Z,6.67
2017-11-26T17:24:54.490Z,2.67
2017-11-26T17:27:29.374Z,2.50
2017-11-26T17:30:03.991Z,5.83
2017-11-26T17:32:39.691Z,5.40
2017-11-26T17:35:14.161Z,2.50
2017-11-26T17:37:49.174Z,6.70
2017-11-26T17:40:24.346Z,3.40
2017-11-26T17:42:59.143Z,2.80
2017-11-26T17:45:33.204Z,4.10
2017-11-26T17:48:07.102Z,3.93
2017-11-26T17:50:42.405Z,3.03
2017-11-26T17:53:17.205Z,5.73
2017-11-26T17:55:52.159Z,1.40
2017-11-26T17:58:27.043Z,5.10
2017-11-26T18:01:01.991Z,4.80
2017-11-26T18:03:37.209Z,2.10
2017-11-26T18:06:12.007Z,2.90
2017-11-26T18:08:47.147Z,2.73
2017-11-26T18:11:22.008Z,2.87
2017-11-26T18:13:57.115Z,3.67
2017-11-26T18:16:32.051Z,3.67
2017-11-26T18:19:06.965Z,6.37
2017-11-26T18:21:41.871Z,5.07
2017-11-26T18:24:16.832Z,4.03
2017-11-26T18:26:51.604Z,6.07
2017-11-26T18:29:26.534Z,6.23
2017-11-26T18:32:01.613Z,5.47
2017-11-26T18:34:36.610Z,5.33
2017-11-26T18:37:11.727Z,7.00
2017-11-26T18:39:46.647Z,4.77
2017-11-26T18:42:21.976Z,8.33
2017-11-26T18:44:56.998Z,5.67
2017-11-26T18:47:32.107Z,5.50
2017-11-26T18:50:07.236Z,5.73
2017-11-26T18:52:42.147Z,3.20
2017-11-26T18:55:17.063Z,4.13
2017-11-26T18:57:52.064Z,5.07
2017-11-26T19:00:26.940Z,7.83
2017-11-26T19:03:02.147Z,5.00
2017-11-26T19:05:37.354Z,8.50
2017-11-26T19:08:12.355Z,8.57
2017-11-26T19:10:47.490Z,5.03
2017-11-26T19:13:22.349Z,2.93
2017-11-26T19:15:57.027Z,7.50
2017-11-26T19:18:32.016Z,3.07
2017-11-26T19:21:06.910Z,3.57
2017-11-26T19:23:42.206Z,9.40
2017-11-26T19:26:17.371Z,3.77
2017-11-26T19:28:51.865Z,4.97
2017-11-26T19:31:27.211Z,5.10
2017-11-26T19:34:02.305Z,4.97
2017-11-26T19:36:37.541Z,7.53
2017-11-26T19:39:12.616Z,8.90
2017-11-26T19:41:47.512Z,5.70
2017-11-26T19:44:22.761Z,5.60
2017-11-26T19:46:57.876Z,7.70
2017-11-26T19:49:32.775Z,7.93
2017-11-26T19:52:07.523Z,7.13
2017-11-26T19:54:41.940Z,8.83
2017-11-26T19:57:16.223Z,9.17
2017-11-26T19:59:50.876Z,13.10
2017-11-26T20:02:25.805Z,5.10
2017-11-26T20:05:00.978Z,7.30
2017-11-26T20:07:36.103Z,11.20
2017-11-26T20:10:11.274Z,8.57
2017-11-26T20:12:45.990Z,7.30
2017-11-26T20:15:21.157Z,8.77
2017-11-26T20:17:55.798Z,9.87
2017-11-26T20:20:30.790Z,8.80
2017-11-26T20:23:06.163Z,8.40
2017-11-26T20:25:41.071Z,7.33
2017-11-26T20:28:15.910Z,9.03
2017-11-26T20:30:51.006Z,6.10
2017-11-26T20:33:26.107Z,8.83
2017-11-26T20:36:01.186Z,10.77
2017-11-26T20:38:36.402Z,9.47
2017-11-26T20:41:11.395Z,10.43
2017-11-26T20:43:46.359Z,13.83
2017-11-26T20:46:21.170Z,13.73
2017-11-26T20:48:56.545Z,10.70
2017-11-26T20:51:31.563Z,11.97
2017-11-26T20:54:05.924Z,10.53
2017-11-26T20:56:41.043Z,7.97
2017-11-26T20:59:17.748Z,11.00
2017-11-26T21:01:52.906Z,8.00
2017-11-26T21:04:27.902Z,8.97
2017-11-26T21:07:04.551Z,7.50
2017-11-26T21:09:39.493Z,10.37
2017-11-26T21:12:14.414Z,10.20
2017-11-26T21:14:50.115Z,8.00
2017-11-26T21:17:27.194Z,8.83
2017-11-26T21:20:02.211Z,13.30
2017-11-26T21:22:37.539Z,9.80
2017-11-26T21:25:13.287Z,8.40
2017-11-26T21:27:48.167Z,14.30
2017-11-26T21:30:23.070Z,12.47
2017-11-26T21:32:58.395Z,10.70
2017-11-26T21:35:33.054Z,11.43
2017-11-26T21:38:08.063Z,9.07
2017-11-26T21:40:43.465Z,9.17
2017-11-26T21:43:18.272Z,14.40
2017-11-26T21:45:55.795Z,13.93
2017-11-26T21:48:31.440Z,11.73
2017-11-26T21:51:06.238Z,9.77
2017-11-26T21:53:41.170Z,8.90
2017-11-26T21:56:16.398Z,15.30
2017-11-26T21:58:51.529Z,11.17
2017-11-26T22:01:26.374Z,12.17
2017-11-26T22:04:01.329Z,6.70
2017-11-26T22:06:36.151Z,12.93
2017-11-26T22:09:10.718Z,8.20
2017-11-26T22:11:46.241Z,5.70
2017-11-26T22:14:20.834Z,10.80
2017-11-26T22:16:55.872Z,9.20
2017-11-26T22:19:30.798Z,10.67
2017-11-26T22:22:05.707Z,8.50
2017-11-26T22:24:40.558Z,8.83
2017-11-26T22:27:15.859Z,9.97
2017-11-26T22:29:49.964Z,7.87
2017-11-26T22:32:25.186Z,4.40
2017-11-26T22:35:00.309Z,9.20
2017-11-26T22:37:34.904Z,11.63
2017-11-26T22:40:10.208Z,13.10
2017-11-26T22:42:45.320Z,11.97
2017-11-26T22:45:20.222Z,13.30
2017-11-26T22:47:55.230Z,11.63
2017-11-26T22:50:30.335Z,11.93
2017-11-26T22:53:05.639Z,12.17
2017-11-26T22:55:40.767Z,13.67
2017-11-26T22:58:15.540Z,15.40
2017-11-26T23:00:50.802Z,10.73
2017-11-26T23:03:25.770Z,14.30
2017-11-26T23:06:00.272Z,9.03
2017-11-26T23:08:35.450Z,10.70
2017-11-26T23:11:10.317Z,14.90
2017-11-26T23:13:45.314Z,13.20
2017-11-26T23:16:20.050Z,11.50
2017-11-26T23:18:55.076Z,15.37
2017-11-26T23:21:30.203Z,16.17
2017-11-26T23:24:05.214Z,15.30
2017-11-26T23:26:40.490Z,18.53
2017-11-26T23:29:15.735Z,14.17
2017-11-26T23:31:50.642Z,14.50
2017-11-26T23:34:25.787Z,11.37
2017-11-26T23:37:01.203Z,14.23
2017-11-26T23:39:36.479Z,24.03
2017-11-26T23:42:11.483Z,21.07
2017-11-26T23:44:46.724Z,15.67
2017-11-26T23:47:21.820Z,16.03
2017-11-26T23:49:56.765Z,16.80
2017-11-26T23:52:31.701Z,14.93
2017-11-26T23:55:06.942Z,13.03
2017-11-26T23:57:41.955Z,23.37
